AirNav   Pilot Hours Calculator
 
 1378 users online  

LA62 Grand View Lodge Heliport
Lake Charles, Louisiana, USA

GOING TO LAKE CHARLES?


FAA INFORMATION EFFECTIVE 08 SEPTEMBER 2022

Location

FAA Identifier: LA62
Lat/Long: 29-50-05.0000N 093-00-02.0000W
29-50.083333N 093-00.033333W
29.8347222,-93.0005556
(estimated)
Elevation: 2 ft. / 1 m (estimated)
From city: 6 miles SW of LAKE CHARLES, LA
Time zone: UTC -5 (UTC -6 during Standard Time)
Zip code: 70632

Heliport Operations

Heliport use: Private use. Permission required prior to landing
Activation date: 10/2007
Control tower: no
ARTCC: HOUSTON CENTER
FSS: DE RIDDER FLIGHT SERVICE STATION
Attendance: UNATNDD
Wind indicator: lighted
Segmented circle: no
Lights: SS-SR

Nearby radio navigation aids

VOR radial/distance  VOR name  Freq  Var
LCHr156/19.2LAKE CHARLES VORTAC113.4007E
LLAr283/34.2WHITE LAKE VOR/DME114.9504E

 
NDB name  Hdg/Dist  Freq  Var  ID
SULPHUR131/30.927804EAUR .- ..- .-.

Heliport Services

Runway Information

Helipad H1

Dimensions: 40 x 40 ft. / 12 x 12 m
Surface: concrete
Runway edge lights: FLD
Traffic pattern: leftleft

Heliport Ownership and Management from official FAA records

Ownership: Privately-owned
Owner: RICHARD ZUSCHLAG
130 E KALISTE SALOOM RD
LAFAYETTE, LA 70509
Phone 337-291-1589
Manager: ERROLL BABINEAUX
112 BORMAN DR
LAFAYETTE, LA 70508
Phone 337-291-1589
OTHER CONTACT MICHAEL SONNIER 337-291-3366 MSONNIER@ACADIAN.COM

Heliport Operational Statistics

Aircraft operations: 12/year
100% local general aviation

Additional Remarks

FREQ 130.05 AVBL.
FOR CD CTC LAKE CHARLES APCH AT 337-480-3103, WHEN APCH CLSD CTC HOUSTON ARTCC AT 281-230-5622.

Instrument Procedures

There are no published instrument procedures at LA62.

Some nearby airports with instrument procedures:

KLCH - Lake Charles Regional Airport (21 nm NW)
KCWF - Chennault International Airport (24 nm N)
6R1 - Welsh Airport (26 nm N)
KUXL - Southland Field Airport (26 nm NW)
3R7 - Jennings Airport (30 nm NE)
 
Loc | Ops | Rwys | IFR | FBO | Links
Com | Nav | Svcs | Stats | Notes
Aerial photo
No photo
 
Sectional chart

 
Airport distance calculator
Flying to Grand View Lodge Heliport? Find the distance to fly.

From to LA62

Sunrise and sunset
Times for 28-Sep-2022
 Local
(UTC-5)
 Zulu
(UTC)
Morning civil twilight06:4111:41
Sunrise07:0512:05
Sunset19:0100:01
Evening civil twilight19:2500:25

Current date and time
Zulu (UTC)  29-Sep-2022 01:21:38
Local (UTC-5)  28-Sep-2022 20:21:38
 
METAR
KLCH 
21nm NW 
290053Z 05005KT 10SM CLR 22/09 A3015 RMK AO2 SLP217 T02220094
KCWF 
24nm N 
290050Z 02004KT 10SM SKC 24/10 A3015
KUXL 
26nm NW 
290055Z AUTO 01004KT 10SM CLR 24/08 A3016 RMK AO2 T02390080
K3R7 
30nm NE 
290055Z AUTO 01005KT 10SM CLR 22/09 A3015 RMK AO2 T02220086
TAF
KLCH 
21nm NW 
281723Z 2818/2918 04010G15KT P6SM SKC FM290000 03008KT P6SM SKC
NOTAMs
Click for the latest NOTAMs
NOTAMs are issued by the DoD/FAA and will open in a separate window not controlled by AirNav.

 

 
 

Would you like to see your business listed on this page?

 If your business provides an interesting product or service to pilots, flight crews, aircraft, or users of the Grand View Lodge Heliport, you should consider listing it here.  To start the listing process, click on the button below
 
Add a business
 

Other Pages about Grand View Lodge Heliport

Update a link
 
Copyright © AirNav, LLC. All rights reserved. Privacy Policy  Contact